Eagles Nest, North Dakota
Current Conditions -  °F | °C
As of 1:15 PM on Saturday 25 Oct 2014 (Local Time) from KD57 Reporting Station
Clear Clear  
Wind Chill: 59°   Ceiling: Unl
Heat Index: 59°   Visibility: 10mi
Dew Point: 30°   Wind: 7mph
Humidity: 34%   Direction: NA
Pressure: 30.11"   Gusts: NA
Location:  46.8449°N, 101.803°W
Report Text: KD57 251815Z AUTO VRB06KT 10SM CLR 15/M01 A3011 RMK AO2 TSNO
Loading
Personal Weather Stations






























Interactive Weather Map
Tropical Storm Tracking
New forecast layout! Learn more

10-Day Weather Forecast

Advertisements
Track Severe Weather on mobile